Fairbanks, Alaska
Current Conditions -  °F | °C
As of 6:56 PM on Saturday 22 Nov 2014 (Local Time) from PAFB Reporting Station
Clear Clear  
Wind Chill:   Ceiling: Unl
Heat Index:   Visibility: 10mi
Dew Point: -11°   Wind: 3mph
Humidity: 57%   Direction: 50°NE
Pressure: 29.46"   Gusts: NA
Location:  64.85°N, 147.72°W
Report Text: PAFB 230356Z AUTO 05003KT 10SM CLR M17/M24 A2946 RMK SLP988 T11721239 $ VIA AUTODIAL
Loading
Personal Weather Stations






























Interactive Weather Map New forecast layout! Learn more

10-Day Weather Forecast

Advertisements
Track Severe Weather on mobile